»·PEaware :: N583NV KMFR-KOTH

N583NV :: KMFR-KOTH

FLIGHT INFORMATION

Flight Status: Arrived
Operator: Privately registered:
United States
More flights under this callsign
Pilot: Joe C. (19058)
Aircraft: EMBRAER BANDEIRANTE
(E110)
More flights by this aircraft type
Origin: KMFR Rogue Valley Intl-Medford
United States
Destination: KOTH North Bend Mun
United States
More flights between these airports :: More routes between these airports
Route: +JKSN1 OED V287 OTH
File this flight plan on PilotEdge
Remarks:
Altitude:
(Current/Filed)
800ft
Speed:
(Current/Filed)
180kts
Departed: 15-Oct-18 06:24 PM
Arrived: 15-Oct-18 07:00 PM
Distance/Time
Traveled:
87nm/0:35
Distance/Time
To Go:
Arrived

Flight Plot

Page will automatically refresh every two minutes.

Flight plan parsing failed; only flown route is shown


Map Options




Map Legend


Flown Route
Filed Route
Departure Airport
Arrival Airport
Navaid (VOR, NDB)
Fix

Horizontal Profiles

Position Reports

Time Latitude Longitude Heading Altitude Ground
Speed
15-Oct-18 18:10 42.371919 -122.878197 24 1310ft 0kts
15-Oct-18 18:11 42.371919 -122.878197 24 1310ft 0kts
15-Oct-18 18:12 42.371919 -122.878197 24 1310ft 0kts
15-Oct-18 18:13 42.371919 -122.878197 24 1310ft 0kts
15-Oct-18 18:14 42.371919 -122.878197 24 1310ft 0kts
15-Oct-18 18:15 42.371919 -122.878197 24 1310ft 0kts
15-Oct-18 18:16 42.371919 -122.878197 24 1310ft 0kts
15-Oct-18 18:17 42.371919 -122.878197 24 1310ft 0kts
15-Oct-18 18:18 42.371919 -122.878197 24 1310ft 0kts
15-Oct-18 18:19 42.371919 -122.878197 24 1310ft 0kts
15-Oct-18 18:20 42.371927 -122.878192 24 1310ft 0kts
15-Oct-18 18:21 42.372328 -122.878287 21 1310ft 0kts
15-Oct-18 18:22 42.373157 -122.875249 2 1311ft 21kts
15-Oct-18 18:23 42.380132 -122.877606 338 1304ft 28kts
15-Oct-18 18:24 42.385769 -122.880236 55 1297ft 0kts
15-Oct-18 18:25 42.385769 -122.880236 55 1297ft 0kts
15-Oct-18 18:26 42.384132 -122.878053 158 1301ft 64kts
15-Oct-18 18:27 42.350991 -122.863694 186 2151ft 147kts
15-Oct-18 18:28 42.352547 -122.901623 336 3592ft 141kts
15-Oct-18 18:29 42.385897 -122.920946 337 5140ft 125kts
15-Oct-18 18:30 42.417669 -122.929661 11 6296ft 122kts
15-Oct-18 18:31 42.450929 -122.920604 12 7505ft 122kts
15-Oct-18 18:32 42.483964 -122.919892 321 8350ft 144kts
15-Oct-18 18:33 42.518375 -122.963891 317 8023ft 184kts
15-Oct-18 18:34 42.555623 -123.012863 317 8022ft 192kts
15-Oct-18 18:35 42.600899 -123.072537 317 8015ft 193kts
15-Oct-18 18:36 42.632730 -123.114562 317 8017ft 191kts
15-Oct-18 18:37 42.670819 -123.164934 317 8015ft 191kts
15-Oct-18 18:38 42.708689 -123.215107 317 8011ft 190kts
15-Oct-18 18:39 42.746607 -123.265439 317 8006ft 190kts
15-Oct-18 18:40 42.784444 -123.315746 317 8001ft 190kts
15-Oct-18 18:41 42.822012 -123.365788 317 7999ft 189kts
15-Oct-18 18:42 42.859731 -123.416155 317 7999ft 189kts
15-Oct-18 18:43 42.897932 -123.465286 318 7999ft 189kts
15-Oct-18 18:44 42.940282 -123.507223 328 7999ft 188kts
15-Oct-18 18:45 42.983704 -123.546896 328 7999ft 188kts
15-Oct-18 18:46 43.027187 -123.586731 328 7999ft 188kts
15-Oct-18 18:47 43.070438 -123.626428 328 7996ft 188kts
15-Oct-18 18:48 43.113784 -123.666286 327 7978ft 188kts
15-Oct-18 18:49 43.157228 -123.706297 327 7939ft 188kts
15-Oct-18 18:50 43.200843 -123.746538 327 7747ft 195kts
15-Oct-18 18:51 43.247180 -123.789381 326 7129ft 206kts
15-Oct-18 18:52 43.294086 -123.832816 326 6558ft 185kts
15-Oct-18 18:53 43.334113 -123.869925 325 5755ft 168kts
15-Oct-18 18:54 43.371940 -123.904889 326 5107ft 156kts
15-Oct-18 18:55 43.407234 -123.945002 281 5087ft 178kts
15-Oct-18 18:56 43.409929 -124.008826 273 4079ft 164kts
15-Oct-18 18:57 43.412020 -124.066246 273 2690ft 134kts
15-Oct-18 18:58 43.413975 -124.120718 272 2041ft 139kts
15-Oct-18 18:59 43.415473 -124.170274 272 1755ft 128kts
15-Oct-18 19:00 43.421826 -124.218096 294 885ft 132kts
15-Oct-18 19:01 43.418774 -124.250808 239 20ft 44kts
15-Oct-18 19:02 43.418645 -124.247965 60 21ft 31kts
15-Oct-18 19:03 43.417492 -124.247029 149 24ft 0kts

Navigation Log

Ident Type
Flight plan parsing failed, navigation log unavailable